sensor_id;sensor_type;location;lat;lon;timestamp;pressure;altitude;pressure_sealevel;temperature;humidity
63535;BME280;55128;50.230;18.944;2023-03-13T00:04:08;97954.19;;;5.99;56.54
63535;BME280;55128;50.230;18.944;2023-03-13T00:09:11;97967.91;;;6.08;56.96
63535;BME280;55128;50.230;18.944;2023-03-13T00:14:12;97972.16;;;6.12;57.52
63535;BME280;55128;50.230;18.944;2023-03-13T00:19:14;97952.84;;;6.11;57.36
63535;BME280;55128;50.230;18.944;2023-03-13T00:24:14;97955.50;;;6.11;58.63
63535;BME280;55128;50.230;18.944;2023-03-13T00:29:15;97948.88;;;6.23;57.95
63535;BME280;55128;50.230;18.944;2023-03-13T00:34:16;97932.53;;;6.37;57.55
63535;BME280;55128;50.230;18.944;2023-03-13T00:39:16;97923.41;;;6.23;58.70
63535;BME280;55128;50.230;18.944;2023-03-13T00:44:16;97921.41;;;6.29;58.57
63535;BME280;55128;50.230;18.944;2023-03-13T00:49:17;97915.84;;;6.14;59.54
63535;BME280;55128;50.230;18.944;2023-03-13T00:54:17;97912.06;;;6.21;59.88
63535;BME280;55128;50.230;18.944;2023-03-13T00:59:18;97918.66;;;6.32;60.09
63535;BME280;55128;50.230;18.944;2023-03-13T01:04:18;97904.81;;;6.27;60.64
63535;BME280;55128;50.230;18.944;2023-03-13T01:09:18;97904.59;;;6.33;60.79
63535;BME280;55128;50.230;18.944;2023-03-13T01:14:19;97910.50;;;6.38;60.59
63535;BME280;55128;50.230;18.944;2023-03-13T01:19:19;97924.47;;;6.40;60.74
63535;BME280;55128;50.230;18.944;2023-03-13T01:24:20;97930.75;;;6.37;61.89
63535;BME280;55128;50.230;18.944;2023-03-13T01:29:21;97934.53;;;6.52;62.15
63535;BME280;55128;50.230;18.944;2023-03-13T01:34:21;97931.16;;;6.71;61.32
63535;BME280;55128;50.230;18.944;2023-03-13T01:39:21;97937.59;;;6.64;61.21
63535;BME280;55128;50.230;18.944;2023-03-13T01:44:24;97942.75;;;6.67;61.58
63535;BME280;55128;50.230;18.944;2023-03-13T01:49:34;97933.31;;;6.61;62.29
63535;BME280;55128;50.230;18.944;2023-03-13T01:59:59;97924.63;;;6.79;62.39
63535;BME280;55128;50.230;18.944;2023-03-13T02:05:02;97926.94;;;6.87;62.62
63535;BME280;55128;50.230;18.944;2023-03-13T02:10:06;97919.28;;;6.81;63.35
63535;BME280;55128;50.230;18.944;2023-03-13T02:15:12;97928.13;;;6.80;63.43
63535;BME280;55128;50.230;18.944;2023-03-13T02:20:15;97922.38;;;6.70;64.24
63535;BME280;55128;50.230;18.944;2023-03-13T02:30:25;97945.22;;;6.92;64.06
63535;BME280;55128;50.230;18.944;2023-03-13T02:35:26;97949.16;;;6.81;64.67
63535;BME280;55128;50.230;18.944;2023-03-13T02:40:30;97963.91;;;7.08;64.21
63535;BME280;55128;50.230;18.944;2023-03-13T02:45:32;97965.19;;;6.97;64.53
63535;BME280;55128;50.230;18.944;2023-03-13T02:50:34;97965.25;;;6.96;64.55
63535;BME280;55128;50.230;18.944;2023-03-13T02:55:39;97966.00;;;6.99;65.22
63535;BME280;55128;50.230;18.944;2023-03-13T03:00:40;97980.25;;;6.95;64.96
63535;BME280;55128;50.230;18.944;2023-03-13T03:05:40;97969.09;;;7.09;65.25
63535;BME280;55128;50.230;18.944;2023-03-13T03:10:41;97963.91;;;7.08;65.47
63535;BME280;55128;50.230;18.944;2023-03-13T03:15:41;97966.00;;;6.99;65.68
63535;BME280;55128;50.230;18.944;2023-03-13T03:20:42;97973.19;;;7.16;65.19
63535;BME280;55128;50.230;18.944;2023-03-13T03:25:43;97965.09;;;7.00;66.32
63535;BME280;55128;50.230;18.944;2023-03-13T03:30:43;97967.00;;;6.97;66.57
63535;BME280;55128;50.230;18.944;2023-03-13T03:35:43;97966.34;;;7.12;65.91
63535;BME280;55128;50.230;18.944;2023-03-13T03:40:44;97975.16;;;7.11;66.52
63535;BME280;55128;50.230;18.944;2023-03-13T03:45:45;97969.56;;;6.98;66.77
63535;BME280;55128;50.230;18.944;2023-03-13T03:50:45;97962.50;;;6.99;67.16
63535;BME280;55128;50.230;18.944;2023-03-13T03:55:45;97970.50;;;7.18;66.27
63535;BME280;55128;50.230;18.944;2023-03-13T04:00:46;97966.59;;;7.06;67.43
63535;BME280;55128;50.230;18.944;2023-03-13T04:05:47;97975.09;;;6.92;68.25
63535;BME280;55128;50.230;18.944;2023-03-13T04:10:47;97963.09;;;6.85;68.28
63535;BME280;55128;50.230;18.944;2023-03-13T04:15:47;97958.00;;;7.01;67.98
63535;BME280;55128;50.230;18.944;2023-03-13T04:20:48;97962.22;;;6.85;68.53
63535;BME280;55128;50.230;18.944;2023-03-13T04:25:48;97960.72;;;6.99;67.79
63535;BME280;55128;50.230;18.944;2023-03-13T04:30:48;97951.63;;;7.07;67.82
63535;BME280;55128;50.230;18.944;2023-03-13T04:35:49;97948.06;;;7.08;67.71
63535;BME280;55128;50.230;18.944;2023-03-13T04:40:49;97955.31;;;7.03;67.87
63535;BME280;55128;50.230;18.944;2023-03-13T04:45:53;97944.16;;;6.96;68.53
63535;BME280;55128;50.230;18.944;2023-03-13T04:50:54;97943.09;;;7.00;67.76
63535;BME280;55128;50.230;18.944;2023-03-13T04:55:54;97949.09;;;7.04;68.07
63535;BME280;55128;50.230;18.944;2023-03-13T05:00:54;97952.69;;;7.03;67.77
63535;BME280;55128;50.230;18.944;2023-03-13T05:05:56;97941.19;;;7.04;68.22
63535;BME280;55128;50.230;18.944;2023-03-13T05:10:56;97936.06;;;7.00;68.33
63535;BME280;55128;50.230;18.944;2023-03-13T05:15:56;97939.59;;;6.99;68.51
63535;BME280;55128;50.230;18.944;2023-03-13T05:20:57;97930.28;;;7.11;68.41
63535;BME280;55128;50.230;18.944;2023-03-13T05:25:58;97927.41;;;7.17;67.46
63535;BME280;55128;50.230;18.944;2023-03-13T05:30:59;97931.81;;;7.17;67.89
63535;BME280;55128;50.230;18.944;2023-03-13T05:35:59;97931.91;;;7.15;67.96
63535;BME280;55128;50.230;18.944;2023-03-13T05:40:59;97927.34;;;7.19;68.26
63535;BME280;55128;50.230;18.944;2023-03-13T05:46:00;97927.25;;;7.41;67.43
63535;BME280;55128;50.230;18.944;2023-03-13T05:51:00;97912.34;;;7.40;67.77
63535;BME280;55128;50.230;18.944;2023-03-13T05:56:00;97911.88;;;7.51;67.66
63535;BME280;55128;50.230;18.944;2023-03-13T06:01:09;97907.88;;;7.61;67.31
63535;BME280;55128;50.230;18.944;2023-03-13T06:06:10;97900.38;;;7.90;66.44
63535;BME280;55128;50.230;18.944;2023-03-13T06:11:10;97887.34;;;8.23;65.49
63535;BME280;55128;50.230;18.944;2023-03-13T06:16:10;97891.84;;;8.21;65.30
63535;BME280;55128;50.230;18.944;2023-03-13T06:21:11;97896.13;;;8.95;63.53
63535;BME280;55128;50.230;18.944;2023-03-13T06:26:11;97882.50;;;9.20;62.64
63535;BME280;55128;50.230;18.944;2023-03-13T06:31:12;97891.41;;;10.64;60.17
63535;BME280;55128;50.230;18.944;2023-03-13T06:36:12;97896.06;;;12.20;54.01
63535;BME280;55128;50.230;18.944;2023-03-13T06:41:13;97899.00;;;13.50;51.13
63535;BME280;55128;50.230;18.944;2023-03-13T06:46:20;97904.97;;;15.01;47.00
63535;BME280;55128;50.230;18.944;2023-03-13T06:51:21;97904.31;;;14.86;46.17
63535;BME280;55128;50.230;18.944;2023-03-13T06:56:21;97902.97;;;13.04;49.50
63535;BME280;55128;50.230;18.944;2023-03-13T07:01:22;97898.22;;;12.69;50.30
63535;BME280;55128;50.230;18.944;2023-03-13T07:06:22;97885.19;;;13.94;49.24
63535;BME280;55128;50.230;18.944;2023-03-13T07:11:23;97884.47;;;16.60;43.18
63535;BME280;55128;50.230;18.944;2023-03-13T07:16:25;97872.22;;;17.32;40.56
63535;BME280;55128;50.230;18.944;2023-03-13T07:21:25;97887.50;;;16.55;40.49
63535;BME280;55128;50.230;18.944;2023-03-13T07:26:26;97885.94;;;15.75;42.62
63535;BME280;55128;50.230;18.944;2023-03-13T07:31:26;97884.31;;;17.26;40.39
63535;BME280;55128;50.230;18.944;2023-03-13T07:36:29;97875.97;;;18.72;38.54
63535;BME280;55128;50.230;18.944;2023-03-13T07:41:29;97875.38;;;19.46;35.45
63535;BME280;55128;50.230;18.944;2023-03-13T07:46:30;97849.88;;;20.43;35.38
63535;BME280;55128;50.230;18.944;2023-03-13T07:51:30;97865.50;;;21.21;33.41
63535;BME280;55128;50.230;18.944;2023-03-13T07:56:31;97854.31;;;21.16;33.70
63535;BME280;55128;50.230;18.944;2023-03-13T08:01:31;97858.69;;;23.55;29.61
63535;BME280;55128;50.230;18.944;2023-03-13T08:06:33;97850.78;;;22.28;30.73
63535;BME280;55128;50.230;18.944;2023-03-13T08:11:39;97857.31;;;22.93;29.43
63535;BME280;55128;50.230;18.944;2023-03-13T08:16:40;97859.25;;;19.93;33.64
63535;BME280;55128;50.230;18.944;2023-03-13T08:21:40;97845.34;;;21.60;31.99
63535;BME280;55128;50.230;18.944;2023-03-13T08:26:41;97846.63;;;22.16;30.80
63535;BME280;55128;50.230;18.944;2023-03-13T08:31:46;97840.69;;;22.12;30.03
63535;BME280;55128;50.230;18.944;2023-03-13T08:36:47;97835.97;;;21.02;31.25
63535;BME280;55128;50.230;18.944;2023-03-13T08:41:48;97839.56;;;23.23;29.93
63535;BME280;55128;50.230;18.944;2023-03-13T08:46:48;97837.09;;;22.38;30.40
63535;BME280;55128;50.230;18.944;2023-03-13T08:51:48;97837.72;;;23.16;29.44
63535;BME280;55128;50.230;18.944;2023-03-13T08:56:49;97832.44;;;23.47;28.44
63535;BME280;55128;50.230;18.944;2023-03-13T09:01:49;97827.56;;;23.09;29.69
63535;BME280;55128;50.230;18.944;2023-03-13T09:06:49;97814.88;;;23.18;28.98
63535;BME280;55128;50.230;18.944;2023-03-13T09:11:50;97822.13;;;22.93;28.98
63535;BME280;55128;50.230;18.944;2023-03-13T09:16:50;97798.16;;;23.79;28.00
63535;BME280;55128;50.230;18.944;2023-03-13T09:21:50;97783.53;;;24.28;27.05
63535;BME280;55128;50.230;18.944;2023-03-13T09:26:51;97792.97;;;24.09;27.78
63535;BME280;55128;50.230;18.944;2023-03-13T09:31:52;97797.53;;;24.08;27.48
63535;BME280;55128;50.230;18.944;2023-03-13T09:36:52;97782.88;;;26.73;24.65
63535;BME280;55128;50.230;18.944;2023-03-13T09:42:01;97787.25;;;27.46;23.13
63535;BME280;55128;50.230;18.944;2023-03-13T09:47:09;97788.91;;;26.90;23.42
63535;BME280;55128;50.230;18.944;2023-03-13T10:02:35;97772.34;;;20.99;31.47
63535;BME280;55128;50.230;18.944;2023-03-13T10:07:36;97746.69;;;20.95;30.27
63535;BME280;55128;50.230;18.944;2023-03-13T10:12:45;97744.34;;;21.95;29.97
63535;BME280;55128;50.230;18.944;2023-03-13T10:17:46;97728.69;;;19.88;32.05
63535;BME280;55128;50.230;18.944;2023-03-13T10:22:49;97725.66;;;19.73;32.60
63535;BME280;55128;50.230;18.944;2023-03-13T10:27:51;97724.16;;;18.56;35.22
63535;BME280;55128;50.230;18.944;2023-03-13T10:32:56;97700.47;;;17.72;36.40
63535;BME280;55128;50.230;18.944;2023-03-13T10:38:14;97703.00;;;17.14;37.39
63535;BME280;55128;50.230;18.944;2023-03-13T10:43:20;97701.84;;;17.06;38.67
63535;BME280;55128;50.230;18.944;2023-03-13T10:48:23;97699.94;;;16.55;38.69
63535;BME280;55128;50.230;18.944;2023-03-13T10:58:34;97686.13;;;15.97;40.78
63535;BME280;55128;50.230;18.944;2023-03-13T11:03:39;97671.34;;;15.70;41.61
63535;BME280;55128;50.230;18.944;2023-03-13T11:08:40;97665.25;;;15.79;41.09
63535;BME280;55128;50.230;18.944;2023-03-13T11:13:42;97656.41;;;15.79;41.30
63535;BME280;55128;50.230;18.944;2023-03-13T11:18:57;97636.56;;;15.81;41.57
63535;BME280;55128;50.230;18.944;2023-03-13T11:24:12;97624.88;;;15.71;41.64
63535;BME280;55128;50.230;18.944;2023-03-13T11:29:47;97620.81;;;15.44;42.17
63535;BME280;55128;50.230;18.944;2023-03-13T11:34:57;97600.16;;;14.91;43.42
63535;BME280;55128;50.230;18.944;2023-03-13T11:40:19;97604.66;;;14.68;45.12
63535;BME280;55128;50.230;18.944;2023-03-13T11:45:58;97598.78;;;15.20;43.98
63535;BME280;55128;50.230;18.944;2023-03-13T11:51:19;97595.44;;;14.84;42.86
63535;BME280;55128;50.230;18.944;2023-03-13T11:56:31;97571.50;;;14.71;42.77
63535;BME280;55128;50.230;18.944;2023-03-13T12:01:40;97564.31;;;14.83;41.73
63535;BME280;55128;50.230;18.944;2023-03-13T12:17:42;97563.81;;;15.11;38.72
63535;BME280;55128;50.230;18.944;2023-03-13T12:22:52;97568.22;;;14.78;39.02
63535;BME280;55128;50.230;18.944;2023-03-13T12:28:14;97546.84;;;14.67;40.36
63535;BME280;55128;50.230;18.944;2023-03-13T12:33:28;97548.59;;;14.57;40.99
63535;BME280;55128;50.230;18.944;2023-03-13T12:38:57;97546.72;;;14.35;42.61
63535;BME280;55128;50.230;18.944;2023-03-13T12:44:01;97568.69;;;14.27;42.76
63535;BME280;55128;50.230;18.944;2023-03-13T12:59:35;97569.97;;;13.52;49.15
63535;BME280;55128;50.230;18.944;2023-03-13T13:04:41;97559.97;;;13.43;49.12
63535;BME280;55128;50.230;18.944;2023-03-13T13:10:00;97559.94;;;13.32;51.58
63535;BME280;55128;50.230;18.944;2023-03-13T13:15:24;97545.50;;;13.10;50.38
63535;BME280;55128;50.230;18.944;2023-03-13T13:20:37;97552.16;;;13.05;50.91
63535;BME280;55128;50.230;18.944;2023-03-13T13:25:39;97525.50;;;12.68;51.39
63535;BME280;55128;50.230;18.944;2023-03-13T13:30:39;97529.66;;;12.72;50.10
63535;BME280;55128;50.230;18.944;2023-03-13T13:35:39;97528.84;;;12.95;49.92
63535;BME280;55128;50.230;18.944;2023-03-13T13:40:40;97509.81;;;12.76;50.22
63535;BME280;55128;50.230;18.944;2023-03-13T13:51:28;97490.25;;;12.27;52.76
63535;BME280;55128;50.230;18.944;2023-03-13T13:56:41;97500.78;;;12.29;53.35
63535;BME280;55128;50.230;18.944;2023-03-13T14:01:42;97502.81;;;12.25;53.46
63535;BME280;55128;50.230;18.944;2023-03-13T14:06:46;97507.94;;;12.15;54.39
63535;BME280;55128;50.230;18.944;2023-03-13T14:11:48;97504.25;;;11.92;55.74
63535;BME280;55128;50.230;18.944;2023-03-13T14:16:54;97499.94;;;11.77;58.72
63535;BME280;55128;50.230;18.944;2023-03-13T14:27:00;97487.28;;;11.55;61.45
63535;BME280;55128;50.230;18.944;2023-03-13T14:32:00;97483.75;;;11.28;62.03
63535;BME280;55128;50.230;18.944;2023-03-13T14:37:01;97481.09;;;11.28;60.67
63535;BME280;55128;50.230;18.944;2023-03-13T14:42:08;97476.19;;;11.22;61.62
63535;BME280;55128;50.230;18.944;2023-03-13T14:47:27;97473.13;;;11.28;59.27
63535;BME280;55128;50.230;18.944;2023-03-13T14:52:32;97480.03;;;11.44;58.99
63535;BME280;55128;50.230;18.944;2023-03-13T14:57:34;97470.16;;;11.46;58.56
63535;BME280;55128;50.230;18.944;2023-03-13T15:02:36;97466.88;;;11.55;57.83
63535;BME280;55128;50.230;18.944;2023-03-13T15:07:45;97462.50;;;11.41;58.37
63535;BME280;55128;50.230;18.944;2023-03-13T15:12:46;97456.56;;;11.38;58.45
63535;BME280;55128;50.230;18.944;2023-03-13T15:17:47;97455.94;;;11.47;57.51
63535;BME280;55128;50.230;18.944;2023-03-13T15:22:47;97444.22;;;11.62;57.61
63535;BME280;55128;50.230;18.944;2023-03-13T15:27:48;97432.53;;;11.65;56.72
63535;BME280;55128;50.230;18.944;2023-03-13T15:32:49;97441.13;;;11.68;57.17
63535;BME280;55128;50.230;18.944;2023-03-13T15:37:49;97442.09;;;11.42;57.86
63535;BME280;55128;50.230;18.944;2023-03-13T15:42:50;97441.13;;;11.43;57.68
63535;BME280;55128;50.230;18.944;2023-03-13T15:47:51;97439.75;;;11.37;57.59
63535;BME280;55128;50.230;18.944;2023-03-13T15:52:51;97446.75;;;11.25;57.88
63535;BME280;55128;50.230;18.944;2023-03-13T15:57:52;97453.66;;;11.41;57.59
63535;BME280;55128;50.230;18.944;2023-03-13T16:02:52;97448.88;;;11.33;57.54
63535;BME280;55128;50.230;18.944;2023-03-13T16:07:53;97456.44;;;11.52;57.12
63535;BME280;55128;50.230;18.944;2023-03-13T16:12:54;97454.13;;;11.47;57.24
63535;BME280;55128;50.230;18.944;2023-03-13T16:17:54;97429.88;;;11.26;57.70
63535;BME280;55128;50.230;18.944;2023-03-13T16:22:54;97431.97;;;11.21;57.76
63535;BME280;55128;50.230;18.944;2023-03-13T16:27:55;97421.03;;;11.26;57.88
63535;BME280;55128;50.230;18.944;2023-03-13T16:32:56;97421.44;;;11.07;58.50
63535;BME280;55128;50.230;18.944;2023-03-13T16:37:56;97419.75;;;11.06;58.76
63535;BME280;55128;50.230;18.944;2023-03-13T16:42:57;97412.81;;;11.03;58.79
63535;BME280;55128;50.230;18.944;2023-03-13T16:47:58;97405.47;;;10.94;59.33
63535;BME280;55128;50.230;18.944;2023-03-13T16:52:58;97408.75;;;10.98;59.13
63535;BME280;55128;50.230;18.944;2023-03-13T16:57:59;97408.41;;;10.77;59.55
63535;BME280;55128;50.230;18.944;2023-03-13T17:02:59;97410.78;;;10.81;59.73
63535;BME280;55128;50.230;18.944;2023-03-13T17:08:00;97406.31;;;10.82;59.58
63535;BME280;55128;50.230;18.944;2023-03-13T17:13:01;97401.84;;;10.82;59.46
63535;BME280;55128;50.230;18.944;2023-03-13T17:18:02;97396.97;;;10.89;59.39
63535;BME280;55128;50.230;18.944;2023-03-13T17:23:03;97393.88;;;10.82;59.41
63535;BME280;55128;50.230;18.944;2023-03-13T17:28:03;97388.44;;;10.71;59.78
63535;BME280;55128;50.230;18.944;2023-03-13T17:33:04;97392.78;;;10.72;59.30
63535;BME280;55128;50.230;18.944;2023-03-13T17:38:04;97386.09;;;10.66;59.61
63535;BME280;55128;50.230;18.944;2023-03-13T17:43:04;97379.44;;;10.74;59.32
63535;BME280;55128;50.230;18.944;2023-03-13T17:48:10;97374.00;;;10.75;59.06
63535;BME280;55128;50.230;18.944;2023-03-13T17:53:11;97356.56;;;10.71;58.86
63535;BME280;55128;50.230;18.944;2023-03-13T17:58:11;97347.22;;;10.65;59.11
63535;BME280;55128;50.230;18.944;2023-03-13T18:03:11;97338.41;;;10.65;58.81
63535;BME280;55128;50.230;18.944;2023-03-13T18:08:12;97333.31;;;10.62;58.56
63535;BME280;55128;50.230;18.944;2023-03-13T18:13:12;97322.19;;;10.57;58.54
63535;BME280;55128;50.230;18.944;2023-03-13T18:18:15;97307.50;;;10.64;57.40
63535;BME280;55128;50.230;18.944;2023-03-13T18:23:16;97305.16;;;10.46;57.77
63535;BME280;55128;50.230;18.944;2023-03-13T18:28:17;97295.63;;;10.57;57.47
63535;BME280;55128;50.230;18.944;2023-03-13T18:33:17;97310.66;;;10.43;57.79
63535;BME280;55128;50.230;18.944;2023-03-13T18:38:18;97313.84;;;10.48;57.63
63535;BME280;55128;50.230;18.944;2023-03-13T18:43:18;97304.75;;;10.53;57.38
63535;BME280;55128;50.230;18.944;2023-03-13T18:48:18;97304.81;;;10.38;57.46
63535;BME280;55128;50.230;18.944;2023-03-13T18:53:19;97299.19;;;10.43;56.94
63535;BME280;55128;50.230;18.944;2023-03-13T18:58:19;97287.53;;;10.33;57.29
63535;BME280;55128;50.230;18.944;2023-03-13T19:03:19;97279.06;;;10.26;56.84
63535;BME280;55128;50.230;18.944;2023-03-13T19:08:20;97277.06;;;10.29;56.02
63535;BME280;55128;50.230;18.944;2023-03-13T19:13:21;97281.31;;;10.19;55.75
63535;BME280;55128;50.230;18.944;2023-03-13T19:18:21;97279.41;;;10.21;55.44
63535;BME280;55128;50.230;18.944;2023-03-13T19:23:21;97271.59;;;10.33;54.98
63535;BME280;55128;50.230;18.944;2023-03-13T19:28:22;97267.78;;;10.37;54.04
63535;BME280;55128;50.230;18.944;2023-03-13T19:33:22;97257.41;;;10.46;53.04
63535;BME280;55128;50.230;18.944;2023-03-13T19:38:23;97253.81;;;10.47;52.63
63535;BME280;55128;50.230;18.944;2023-03-13T19:43:23;97258.72;;;10.66;51.56
63535;BME280;55128;50.230;18.944;2023-03-13T19:48:23;97250.84;;;10.65;51.34
63535;BME280;55128;50.230;18.944;2023-03-13T19:53:24;97249.03;;;10.78;50.80
63535;BME280;55128;50.230;18.944;2023-03-13T19:58:24;97239.59;;;10.87;50.21
63535;BME280;55128;50.230;18.944;2023-03-13T20:03:24;97241.63;;;10.96;49.76
63535;BME280;55128;50.230;18.944;2023-03-13T20:08:25;97231.41;;;11.03;49.41
63535;BME280;55128;50.230;18.944;2023-03-13T20:13:25;97225.34;;;11.14;49.71
63535;BME280;55128;50.230;18.944;2023-03-13T20:18:26;97230.72;;;11.25;48.62
63535;BME280;55128;50.230;18.944;2023-03-13T20:23:27;97224.13;;;11.31;48.68
63535;BME280;55128;50.230;18.944;2023-03-13T20:28:27;97219.72;;;11.42;48.00
63535;BME280;55128;50.230;18.944;2023-03-13T20:33:27;97209.25;;;11.65;47.68
63535;BME280;55128;50.230;18.944;2023-03-13T20:38:28;97197.47;;;11.80;47.37
63535;BME280;55128;50.230;18.944;2023-03-13T20:43:29;97196.63;;;11.80;46.98
63535;BME280;55128;50.230;18.944;2023-03-13T20:48:29;97164.94;;;11.77;46.67
63535;BME280;55128;50.230;18.944;2023-03-13T20:53:30;97158.94;;;11.86;46.31
63535;BME280;55128;50.230;18.944;2023-03-13T20:58:30;97177.56;;;11.86;46.30
63535;BME280;55128;50.230;18.944;2023-03-13T21:03:31;97179.25;;;11.87;46.46
63535;BME280;55128;50.230;18.944;2023-03-13T21:08:34;97174.13;;;11.73;46.66
63535;BME280;55128;50.230;18.944;2023-03-13T21:13:34;97167.28;;;11.81;45.81
63535;BME280;55128;50.230;18.944;2023-03-13T21:18:36;97153.63;;;11.86;45.47
63535;BME280;55128;50.230;18.944;2023-03-13T21:23:36;97144.81;;;11.61;46.24
63535;BME280;55128;50.230;18.944;2023-03-13T21:28:38;97138.66;;;11.61;46.54
63535;BME280;55128;50.230;18.944;2023-03-13T21:33:41;97143.81;;;11.51;46.10
63535;BME280;55128;50.230;18.944;2023-03-13T21:38:43;97153.72;;;11.49;46.27
63535;BME280;55128;50.230;18.944;2023-03-13T21:43:44;97138.03;;;11.33;46.78
63535;BME280;55128;50.230;18.944;2023-03-13T21:48:45;97134.41;;;11.10;46.89
63535;BME280;55128;50.230;18.944;2023-03-13T21:53:45;97137.34;;;11.18;46.85
63535;BME280;55128;50.230;18.944;2023-03-13T21:58:46;97130.22;;;10.95;47.70
63535;BME280;55128;50.230;18.944;2023-03-13T22:03:46;97125.28;;;11.01;48.10
63535;BME280;55128;50.230;18.944;2023-03-13T22:08:48;97113.38;;;10.70;48.67
63535;BME280;55128;50.230;18.944;2023-03-13T22:13:48;97091.00;;;10.61;49.31
63535;BME280;55128;50.230;18.944;2023-03-13T22:18:48;97073.56;;;10.70;49.12
63535;BME280;55128;50.230;18.944;2023-03-13T22:23:49;97073.50;;;10.83;48.76
63535;BME280;55128;50.230;18.944;2023-03-13T22:28:49;97083.41;;;10.81;48.91
63535;BME280;55128;50.230;18.944;2023-03-13T22:33:50;97061.59;;;10.88;48.96
63535;BME280;55128;50.230;18.944;2023-03-13T22:38:50;97060.00;;;10.99;48.35
63535;BME280;55128;50.230;18.944;2023-03-13T22:43:51;97041.63;;;10.96;49.08
63535;BME280;55128;50.230;18.944;2023-03-13T22:48:51;97020.44;;;11.07;48.98
63535;BME280;55128;50.230;18.944;2023-03-13T22:53:51;97023.34;;;11.04;49.33
63535;BME280;55128;50.230;18.944;2023-03-13T22:58:52;97025.13;;;11.03;48.82
63535;BME280;55128;50.230;18.944;2023-03-13T23:03:52;97025.63;;;11.08;48.71
63535;BME280;55128;50.230;18.944;2023-03-13T23:08:53;97021.31;;;11.07;49.21
63535;BME280;55128;50.230;18.944;2023-03-13T23:13:53;97021.63;;;11.03;49.13
63535;BME280;55128;50.230;18.944;2023-03-13T23:18:54;97023.03;;;10.96;49.37
63535;BME280;55128;50.230;18.944;2023-03-13T23:23:54;97018.66;;;11.07;49.33
63535;BME280;55128;50.230;18.944;2023-03-13T23:28:55;97008.50;;;10.88;49.56
63535;BME280;55128;50.230;18.944;2023-03-13T23:33:55;96997.72;;;10.79;50.34
63535;BME280;55128;50.230;18.944;2023-03-13T23:38:55;97000.16;;;10.82;50.33
63535;BME280;55128;50.230;18.944;2023-03-13T23:43:57;97003.66;;;10.82;50.57
63535;BME280;55128;50.230;18.944;2023-03-13T23:48:59;97003.94;;;10.66;51.45
63535;BME280;55128;50.230;18.944;2023-03-13T23:54:00;96990.38;;;10.58;51.30
63535;BME280;55128;50.230;18.944;2023-03-13T23:59:00;96987.59;;;10.60;51.13
